Home > Products > Valid Products > TAF

000
FTUS43 KFSD 191720
TAFSUX
TAF
KSUX 191720Z 1918/2018 34023G33KT P6SM BKN012
     FM192000 34021G31KT P6SM BKN040 BKN100
     FM200100 33013G20KT P6SM SCT060 SCT200
     FM201500 31020G30KT P6SM SKC=



000
FTUS43 KFSD 191720
TAFFSD
TAF
KFSD 191720Z 1918/2018 32020G27KT P6SM BKN018
     FM192000 34021G31KT P6SM BKN040 BKN100
     FM200100 33013G20KT P6SM SCT060 SCT200
     FM201500 31020G30KT P6SM SKC=



000
FTUS43 KFSD 191720
TAFSUX
TAF
KSUX 191720Z 1918/2018 34023G33KT P6SM BKN012
     FM192000 34021G31KT P6SM BKN040 BKN100
     FM200100 33013G20KT P6SM SCT060 SCT200
     FM201500 31020G30KT P6SM SKC=



000
FTUS43 KFSD 191720
TAFHON
TAF
KHON 191720Z 1918/2018 33024G34KT P6SM BKN050
     FM200100 33013G20KT P6SM FEW050 SCT250
     FM201200 31023G33KT P6SM SKC=



000
FTUS43 KFSD 191720
TAFHON
TAF
KHON 191720Z 1918/2018 33024G34KT P6SM BKN050
     FM200100 33013G20KT P6SM FEW050 SCT250
     FM201200 31023G33KT P6SM SKC=



000
FTUS43 KFSD 191720
TAFSUX
TAF
KSUX 191720Z 1918/2018 34023G33KT P6SM BKN012
     FM192000 34021G31KT P6SM BKN040 BKN100
     FM200100 33013G20KT P6SM SCT060 SCT200
     FM201500 31020G30KT P6SM SKC=



000
FTUS43 KFSD 191720
TAFFSD
TAF
KFSD 191720Z 1918/2018 32020G27KT P6SM BKN018
     FM192000 34021G31KT P6SM BKN040 BKN100
     FM200100 33013G20KT P6SM SCT060 SCT200
     FM201500 31020G30KT P6SM SKC=



000
FTUS43 KFSD 191720
TAFSUX
TAF
KSUX 191720Z 1918/2018 34023G33KT P6SM BKN012
     FM192000 34021G31KT P6SM BKN040 BKN100
     FM200100 33013G20KT P6SM SCT060 SCT200
     FM201500 31020G30KT P6SM SKC=



000
FTUS43 KFSD 191542 AAB
TAFFSD
TAF AMD
KFSD 191542Z 1916/2012 32020G27KT P6SM SCT007 BKN018
      TEMPO 1916/1918 BKN007
     FM192000 34021G31KT P6SM BKN040 BKN100
     FM200100 33013G20KT P6SM SCT060=



000
FTUS43 KFSD 191233 AAA
TAFSUX
TAF AMD
KSUX 191233Z 1913/2012 33010KT P6SM OVC006
      TEMPO 1913/1914 4SM BR
     FM191500 34013G19KT P6SM BKN015 OVC025
     FM191700 34023G33KT P6SM BKN045
     FM200100 33015G23KT P6SM SCT070=



000
FTUS43 KFSD 191233 AAA
TAFSUX
TAF AMD
KSUX 191233Z 1913/2012 33010KT P6SM OVC006
      TEMPO 1913/1914 4SM BR
     FM191500 34013G19KT P6SM BKN015 OVC025
     FM191700 34023G33KT P6SM BKN045
     FM200100 33015G23KT P6SM SCT070=



000
FTUS43 KFSD 191231 AAA
TAFFSD
TAF AMD
KFSD 191231Z 1913/2012 31011KT P6SM OVC005
     FM191400 34013G19KT P6SM BKN020
     FM191700 34021G31KT P6SM BKN040 BKN100
     FM200100 33013G20KT P6SM SCT060=



000
FTUS43 KFSD 191124
TAFSUX
TAF
KSUX 191124Z 1912/2012 29007KT 1/2SM FG OVC009
      TEMPO 1912/1913 3SM BR OVC010
     FM191300 33010KT P6SM BKN015
     FM191500 34013G19KT P6SM BKN015 OVC025
     FM191700 34023G33KT P6SM BKN045
     FM200100 33015G23KT P6SM SCT070=



000
FTUS43 KFSD 191124
TAFSUX
TAF
KSUX 191124Z 1912/2012 29007KT 1/2SM FG OVC009
      TEMPO 1912/1913 3SM BR OVC010
     FM191300 33010KT P6SM BKN015
     FM191500 34013G19KT P6SM BKN015 OVC025
     FM191700 34023G33KT P6SM BKN045
     FM200100 33015G23KT P6SM SCT070=



000
FTUS43 KFSD 191124
TAFFSD
TAF
KFSD 191124Z 1912/2012 31011KT P6SM OVC008
     FM191400 34013G19KT P6SM BKN025
     FM191700 34021G31KT P6SM BKN040 BKN100
     FM200100 33013G20KT P6SM SCT060=



000
FTUS43 KFSD 191124
TAFHON
TAF
KHON 191124Z 1912/2012 33013G19KT P6SM SCT010 OVC035
     FM191400 33018G27KT P6SM BKN040 BKN100
     FM191700 33024G34KT P6SM SCT050
     FM200100 33013G20KT P6SM SKC=



000
FTUS43 KFSD 191124
TAFSUX
TAF
KSUX 191124Z 1912/2012 29007KT 1/2SM FG OVC009
      TEMPO 1912/1913 3SM BR OVC010
     FM191300 33010KT P6SM BKN015
     FM191500 34013G19KT P6SM BKN015 OVC025
     FM191700 34023G33KT P6SM BKN045
     FM200100 33015G23KT P6SM SCT070=



000
FTUS43 KFSD 191124
TAFFSD
TAF
KFSD 191124Z 1912/2012 31011KT P6SM OVC008
     FM191400 34013G19KT P6SM BKN025
     FM191700 34021G31KT P6SM BKN040 BKN100
     FM200100 33013G20KT P6SM SCT060=



000
FTUS43 KFSD 191124
TAFHON
TAF
KHON 191124Z 1912/2012 33013G19KT P6SM SCT010 OVC035
     FM191400 33018G27KT P6SM BKN040 BKN100
     FM191700 33024G34KT P6SM SCT050
     FM200100 33013G20KT P6SM SKC=



000
FTUS43 KFSD 191124
TAFSUX
TAF
KSUX 191124Z 1912/2012 29007KT 1/2SM FG OVC009
      TEMPO 1912/1913 3SM BR OVC010
     FM191300 33010KT P6SM BKN015
     FM191500 34013G19KT P6SM BKN015 OVC025
     FM191700 34023G33KT P6SM BKN045
     FM200100 33015G23KT P6SM SCT070=



000
FTUS43 KFSD 190943 AAA
TAFSUX
TAF AMD
KSUX 190943Z 1910/2006 13008KT 1 1/2SM BR OVC002
     FM191200 33010KT P6SM BKN015
     FM191500 34013G19KT P6SM BKN025
     FM191700 34023G33KT P6SM BKN045
     FM200100 33015G23KT P6SM SCT070=



000
FTUS43 KFSD 190940 AAA
TAFFSD
TAF AMD
KFSD 190940Z 1910/2006 22007KT 4SM BR OVC004
     FM191100 31011KT P6SM OVC015
     FM191400 34013G19KT P6SM BKN025
     FM191700 34021G31KT P6SM BKN040
     FM200100 33013G20KT P6SM SCT060=



000
FTUS43 KFSD 190520
TAFHON
TAF
KHON 190520Z 1906/2006 VRB04KT 3SM BR SCT010 OVC022
      TEMPO 1906/1908 1 1/2SM -DZ BR OVC010
     FM190800 31010KT 4SM -SHRA OVC012
     FM191000 33013G19KT P6SM OVC018
     FM191400 33018G27KT P6SM BKN025
     FM191600 33024G34KT P6SM SCT045
     FM200100 33013G20KT P6SM SKC=



000
FTUS43 KFSD 190520
TAFFSD
TAF
KFSD 190520Z 1906/2006 13005KT 5SM BR BKN007 OVC020
      TEMPO 1906/1909 3SM BR SCT007 OVC012
     FM190900 22007KT 4SM BR OVC015
     FM191100 31011KT P6SM OVC015
     FM191400 34013G19KT P6SM BKN025
     FM191700 34021G31KT P6SM BKN040
     FM200100 33013G20KT P6SM SCT060=



000
FTUS43 KFSD 190520
TAFSUX
TAF
KSUX 190520Z 1906/2006 13008KT 5SM BR SCT015 OVC080
     FM191000 21006KT P6SM SCT015 BKN080
     FM191200 33010KT P6SM BKN015
     FM191500 34013G19KT P6SM BKN025
     FM191700 34023G33KT P6SM BKN045
     FM200100 33015G23KT P6SM SCT070=



000
FTUS43 KFSD 190520
TAFSUX
TAF
KSUX 190520Z 1906/2006 13008KT 5SM BR SCT015 OVC080
     FM191000 21006KT P6SM SCT015 BKN080
     FM191200 33010KT P6SM BKN015
     FM191500 34013G19KT P6SM BKN025
     FM191700 34023G33KT P6SM BKN045
     FM200100 33015G23KT P6SM SCT070=



000
FTUS43 KFSD 190259 AAB
TAFHON
TAF AMD
KHON 190259Z 1903/1924 VRB04KT 4SM BR SCT015 OVC030
      TEMPO 1903/1905 -SHRA BKN015
     FM190800 29010KT P6SM VCSH BKN022
     FM191200 31013KT P6SM BKN030
     FM191500 34023G34KT P6SM BKN050=



000
FTUS43 KFSD 190259 AAB
TAFHON
TAF AMD
KHON 190259Z 1903/1924 VRB04KT 4SM BR SCT015 OVC030
      TEMPO 1903/1905 -SHRA BKN015
     FM190800 29010KT P6SM VCSH BKN022
     FM191200 31013KT P6SM BKN030
     FM191500 34023G34KT P6SM BKN050=



000
FTUS43 KFSD 190258 AAB
TAFFSD
TAF AMD
KFSD 190258Z 1903/1924 13004KT P6SM SCT008 OVC017
     FM190900 22007KT P6SM -SHRA BKN015
     FM191200 33012KT P6SM BKN022
     FM191500 33013G19KT P6SM BKN030
     FM191800 34021G31KT P6SM BKN060=



000
FTUS43 KFSD 190101 AAA
TAFHON
TAF AMD
KHON 190101Z 1901/1924 07006KT 6SM -SHRA SCT015 OVC025
      TEMPO 1901/1902 4SM -SHRA BKN015
     FM190300 VRB04KT P6SM SCT015 BKN050
      TEMPO 1903/1905 -SHRA BKN015
     FM190800 29010KT P6SM VCSH BKN022
     FM191200 31013KT P6SM BKN030
     FM191500 34023G34KT P6SM BKN050=



000
FTUS43 KFSD 182329
TAFSUX
TAF
KSUX 182329Z 1900/1924 13008KT P6SM SCT015 OVC100
     FM190900 21006KT P6SM VCSH SCT025 BKN080
     FM191300 33012KT P6SM SCT025 BKN060
     FM191500 34013G19KT P6SM BKN035
     FM191800 34023G33KT P6SM BKN060=



000
FTUS43 KFSD 182329
TAFHON
TAF
KHON 182329Z 1900/1924 07006KT 6SM -SHRA SCT008 BKN015
      TEMPO 1900/1902 4SM -SHRA BKN008
     FM190300 VRB04KT P6SM SCT015 BKN050
      TEMPO 1903/1905 -SHRA BKN015
     FM190800 29010KT P6SM VCSH BKN022
     FM191200 31013KT P6SM BKN030
     FM191500 34023G34KT P6SM BKN050=



000
FTUS43 KFSD 182329
TAFSUX
TAF
KSUX 182329Z 1900/1924 13008KT P6SM SCT015 OVC100
     FM190900 21006KT P6SM VCSH SCT025 BKN080
     FM191300 33012KT P6SM SCT025 BKN060
     FM191500 34013G19KT P6SM BKN035
     FM191800 34023G33KT P6SM BKN060=



000
FTUS43 KFSD 182329
TAFFSD
TAF
KFSD 182329Z 1900/1924 12004KT P6SM SCT008 BKN015 OVC060
     FM190300 16004KT P6SM SCT015 OVC080
     FM190900 22007KT P6SM -SHRA BKN015
     FM191200 33012KT P6SM BKN022
     FM191500 33013G19KT P6SM BKN030
     FM191800 34021G31KT P6SM BKN060=



000
FTUS43 KFSD 182329
TAFSUX
TAF
KSUX 182329Z 1900/1924 13008KT P6SM SCT015 OVC100
     FM190900 21006KT P6SM VCSH SCT025 BKN080
     FM191300 33012KT P6SM SCT025 BKN060
     FM191500 34013G19KT P6SM BKN035
     FM191800 34023G33KT P6SM BKN060=



000
FTUS43 KFSD 182329
TAFSUX
TAF
KSUX 182329Z 1900/1924 13008KT P6SM SCT015 OVC100
     FM190900 21006KT P6SM VCSH SCT025 BKN080
     FM191300 33012KT P6SM SCT025 BKN060
     FM191500 34013G19KT P6SM BKN035
     FM191800 34023G33KT P6SM BKN060=



000
FTUS43 KFSD 182329
TAFHON
TAF
KHON 182329Z 1900/1924 07006KT 6SM -SHRA SCT008 BKN015
      TEMPO 1900/1902 4SM -SHRA BKN008
     FM190300 VRB04KT P6SM SCT015 BKN050
      TEMPO 1903/1905 -SHRA BKN015
     FM190800 29010KT P6SM VCSH BKN022
     FM191200 31013KT P6SM BKN030
     FM191500 34023G34KT P6SM BKN050=



000
FTUS43 KFSD 182329
TAFFSD
TAF
KFSD 182329Z 1900/1924 12004KT P6SM SCT008 BKN015 OVC060
     FM190300 16004KT P6SM SCT015 OVC080
     FM190900 22007KT P6SM -SHRA BKN015
     FM191200 33012KT P6SM BKN022
     FM191500 33013G19KT P6SM BKN030
     FM191800 34021G31KT P6SM BKN060=



000
FTUS43 KFSD 182101 AAA
TAFHON
TAF AMD
KHON 182101Z 1821/1918 11008KT P6SM -SHRA SCT035 OVC080
      TEMPO 1821/1824 4SM SHRA
     FM190000 04008KT P6SM OVC020
     FM190500 32012G19KT 5SM BR OVC008
     FM191000 33016KT P6SM OVC015
     FM191200 33017G25KT P6SM OVC050=



000
FTUS43 KFSD 182037 AAB
TAFSUX
TAF AMD
KSUX 182037Z 1821/1918 09008KT P6SM -SHRA SCT010 OVC035
      TEMPO 1821/1824 BKN010
     FM190000 15004KT P6SM SCT012 OVC045
     FM190900 22009KT 6SM BR VCSH OVC015
     FM191200 33017G25KT P6SM OVC050=



000
FTUS43 KFSD 182037 AAB
TAFSUX
TAF AMD
KSUX 182037Z 1821/1918 09008KT P6SM -SHRA SCT010 OVC035
      TEMPO 1821/1824 BKN010
     FM190000 15004KT P6SM SCT012 OVC045
     FM190900 22009KT 6SM BR VCSH OVC015
     FM191200 33017G25KT P6SM OVC050=



000
FTUS43 KFSD 182037 AAB
TAFSUX
TAF AMD
KSUX 182037Z 1821/1918 09008KT P6SM -SHRA SCT010 OVC035
      TEMPO 1821/1824 BKN010
     FM190000 15004KT P6SM SCT012 OVC045
     FM190900 22009KT 6SM BR VCSH OVC015
     FM191200 33017G25KT P6SM OVC050=



000
FTUS43 KFSD 182037 AAB
TAFSUX
TAF AMD
KSUX 182037Z 1821/1918 09008KT P6SM -SHRA SCT010 OVC035
      TEMPO 1821/1824 BKN010
     FM190000 15004KT P6SM SCT012 OVC045
     FM190900 22009KT 6SM BR VCSH OVC015
     FM191200 33017G25KT P6SM OVC050=



000
FTUS43 KFSD 182014 AAC
TAFFSD
TAF AMD
KFSD 182014Z 1820/1918 12008KT P6SM -SHRA SCT025 OVC060
      TEMPO 1820/1822 4SM RA BR
     FM190000 15004KT P6SM OVC015
     FM190700 22009KT 6SM BR VCSH OVC015
     FM191200 33017G25KT P6SM OVC050=



000
FTUS43 KFSD 181931 AAB
TAFFSD
TAF AMD
KFSD 181931Z 1820/1918 18015KT P6SM -SHRA SCT025 OVC060
      TEMPO 1820/1822 4SM RA BR
     FM190000 15004KT P6SM OVC015
     FM190700 22009KT 6SM BR VCSH OVC015
     FM191200 33017G25KT P6SM OVC050=



000
FTUS43 KFSD 181929 AAA
TAFSUX
TAF AMD
KSUX 181929Z 1819/1918 08005KT 6SM -SHRA SCT020 OVC060
     FM190000 15004KT P6SM SCT035 OVC060
     FM190900 22009KT 6SM BR VCSH OVC015
     FM191200 33017G25KT P6SM OVC050=



000
FTUS43 KFSD 181929 AAA
TAFSUX
TAF AMD
KSUX 181929Z 1819/1918 08005KT 6SM -SHRA SCT020 OVC060
     FM190000 15004KT P6SM SCT035 OVC060
     FM190900 22009KT 6SM BR VCSH OVC015
     FM191200 33017G25KT P6SM OVC050=



000
FTUS43 KFSD 181720
TAFSUX
TAF
KSUX 181720Z 1818/1918 08005KT 6SM -SHRA VCTS OVC060CB
      TEMPO 1818/1820 2SM -TSRA SCT025CB
     FM182200 15004KT P6SM SCT015 OVC060
     FM190000 15004KT P6SM SCT035 OVC060
     FM190900 22009KT 6SM BR VCSH OVC015
     FM191200 33017G25KT P6SM OVC050=



000
FTUS43 KFSD 181720
TAFFSD
TAF
KFSD 181720Z 1818/1918 12009KT P6SM -SHRA OVC060
     FM181900 15015KT 5SM -RA VCTS SCT025CB OVC060
      TEMPO 1819/1822 2SM RA BR BKN025
     FM190000 15004KT P6SM OVC015
     FM190700 22009KT 6SM BR VCSH OVC015
     FM191200 33017G25KT P6SM OVC050=



000
FTUS43 KFSD 181720
TAFSUX
TAF
KSUX 181720Z 1818/1918 08005KT 6SM -SHRA VCTS OVC060CB
      TEMPO 1818/1820 2SM -TSRA SCT025CB
     FM182200 15004KT P6SM SCT015 OVC060
     FM190000 15004KT P6SM SCT035 OVC060
     FM190900 22009KT 6SM BR VCSH OVC015
     FM191200 33017G25KT P6SM OVC050=



000
FTUS43 KFSD 181720
TAFHON
TAF
KHON 181720Z 1818/1918 11008KT P6SM -SHRA SCT035 OVC080
     FM190000 04008KT P6SM OVC020
     FM190500 32012G19KT 5SM BR OVC008
     FM191000 33016KT P6SM OVC015
     FM191200 33017G25KT P6SM OVC050=



000
FTUS43 KFSD 181700 AAB
TAFSUX
TAF AMD
KSUX 181700Z 1817/1912 25005KT 5SM -RA VCTS SCT015 OVC060CB
      TEMPO 1817/1820 2SM -TSRA BKN015CB
     FM182200 12007KT P6SM SCT015 BKN035
     FM190100 12006KT 6SM BR OVC022
     FM190700 22009KT 6SM BR OVC020=



000
FTUS43 KFSD 181700 AAB
TAFSUX
TAF AMD
KSUX 181700Z 1817/1912 25005KT 5SM -RA VCTS SCT015 OVC060CB
      TEMPO 1817/1820 2SM -TSRA BKN015CB
     FM182200 12007KT P6SM SCT015 BKN035
     FM190100 12006KT 6SM BR OVC022
     FM190700 22009KT 6SM BR OVC020=



000
FTUS43 KFSD 181700 AAB
TAFSUX
TAF AMD
KSUX 181700Z 1817/1912 25005KT 5SM -RA VCTS SCT015 OVC060CB
      TEMPO 1817/1820 2SM -TSRA BKN015CB
     FM182200 12007KT P6SM SCT015 BKN035
     FM190100 12006KT 6SM BR OVC022
     FM190700 22009KT 6SM BR OVC020=



000
FTUS43 KFSD 181700 AAB
TAFSUX
TAF AMD
KSUX 181700Z 1817/1912 25005KT 5SM -RA VCTS SCT015 OVC060CB
      TEMPO 1817/1820 2SM -TSRA BKN015CB
     FM182200 12007KT P6SM SCT015 BKN035
     FM190100 12006KT 6SM BR OVC022
     FM190700 22009KT 6SM BR OVC020=



000
FTUS43 KFSD 181618 AAB
TAFFSD
TAF AMD
KFSD 181618Z 1816/1912 09008KT P6SM VCSH SCT070 OVC100
     FM181800 12009KT P6SM -SHRA OVC060
      TEMPO 1819/1822 3SM -TSRA BKN015 OVC030CB
     FM190000 15004KT 6SM BR OVC010
     FM190700 22009KT 6SM BR OVC007=



000
FTUS43 KFSD 181618 AAB
TAFFSD
TAF AMD
KFSD 181618Z 1816/1912 09008KT P6SM VCSH SCT070 OVC100
     FM181800 12009KT P6SM -SHRA OVC060
      TEMPO 1819/1822 3SM -TSRA BKN015 OVC030CB
     FM190000 15004KT 6SM BR OVC010
     FM190700 22009KT 6SM BR OVC007=



000
FTUS43 KFSD 181504 AAA
TAFSUX
TAF AMD
KSUX 181504Z 1815/1912 08005KT 6SM -SHRA VCTS OVC060CB
      TEMPO 1816/1820 5SM -TSRA SCT025CB
     FM182200 12007KT P6SM SCT015 BKN035
     FM190100 12006KT 6SM BR OVC022
     FM190700 22009KT 6SM BR OVC020=



000
FTUS43 KFSD 181504 AAA
TAFSUX
TAF AMD
KSUX 181504Z 1815/1912 08005KT 6SM -SHRA VCTS OVC060CB
      TEMPO 1816/1820 5SM -TSRA SCT025CB
     FM182200 12007KT P6SM SCT015 BKN035
     FM190100 12006KT 6SM BR OVC022
     FM190700 22009KT 6SM BR OVC020=



000
FTUS43 KFSD 181504 AAA
TAFSUX
TAF AMD
KSUX 181504Z 1815/1912 08005KT 6SM -SHRA VCTS OVC060CB
      TEMPO 1816/1820 5SM -TSRA SCT025CB
     FM182200 12007KT P6SM SCT015 BKN035
     FM190100 12006KT 6SM BR OVC022
     FM190700 22009KT 6SM BR OVC020=



000
FTUS43 KFSD 181504 AAA
TAFSUX
TAF AMD
KSUX 181504Z 1815/1912 08005KT 6SM -SHRA VCTS OVC060CB
      TEMPO 1816/1820 5SM -TSRA SCT025CB
     FM182200 12007KT P6SM SCT015 BKN035
     FM190100 12006KT 6SM BR OVC022
     FM190700 22009KT 6SM BR OVC020=



000
FTUS43 KFSD 181133
TAFSUX
TAF
KSUX 181133Z 1812/1912 VRB05KT 6SM -SHRA OVC060
     FM181600 14007KT 5SM SHRA OVC025
      TEMPO 1819/1821 4SM TSRA OVC015CB
     FM182200 12007KT P6SM SCT015 BKN035
     FM190100 12006KT 6SM BR OVC022
     FM190700 22009KT 6SM BR OVC020=



000
FTUS43 KFSD 181133
TAFSUX
TAF
KSUX 181133Z 1812/1912 VRB05KT 6SM -SHRA OVC060
     FM181600 14007KT 5SM SHRA OVC025
      TEMPO 1819/1821 4SM TSRA OVC015CB
     FM182200 12007KT P6SM SCT015 BKN035
     FM190100 12006KT 6SM BR OVC022
     FM190700 22009KT 6SM BR OVC020=



000
FTUS43 KFSD 181133
TAFHON
TAF
KHON 181133Z 1812/1912 VRB05KT P6SM OVC110
     FM181700 11008KT P6SM OVC080
     FM182200 14007KT 6SM -SHRA OVC050
     FM190000 04008KT 5SM SHRA OVC020
     FM190500 32012G19KT P6SM OVC010=



000
FTUS43 KFSD 181133
TAFFSD
TAF
KFSD 181133Z 1812/1912 09008KT P6SM SCT070 OVC100
     FM181800 12009KT P6SM -SHRA OVC060
     FM182000 15008KT 6SM SHRA OVC030
      TEMPO 1821/1823 4SM -TSRA BKN015 OVC030CB
     FM190000 15004KT 6SM BR OVC010
     FM190700 22009KT 6SM BR OVC007=



000
FTUS43 KFSD 180546
TAFFSD
TAF
KFSD 180546Z 1806/1906 03006KT P6SM SCT110 OVC200
     FM181200 09008KT P6SM OVC090
     FM181800 14010KT P6SM -SHRA OVC060
     FM182000 15008KT 4SM SHRA OVC015
     FM190000 17004KT 6SM BR OVC009=



000
FTUS43 KFSD 180546
TAFHON
TAF
KHON 180546Z 1806/1906 05005KT P6SM BKN200
     FM180900 06005KT P6SM OVC110
     FM181500 09005KT P6SM OVC080
     FM181800 14007KT P6SM OVC070
     FM182100 14007KT 6SM SHRA OVC060
     FM190000 35008KT 5SM SHRA OVC010=



000
FTUS43 KFSD 180546
TAFSUX
TAF
KSUX 180546Z 1806/1906 08005KT P6SM SCT080 OVC200
     FM181200 10008KT 6SM -SHRA OVC060
     FM181600 14007KT 5SM SHRA OVC025
      TEMPO 1819/1821 4SM TSRA OVC015CB
     FM182200 12007KT P6SM SCT015 BKN035
     FM190100 12006KT 6SM BR OVC022=



000
FTUS43 KFSD 180546
TAFSUX
TAF
KSUX 180546Z 1806/1906 08005KT P6SM SCT080 OVC200
     FM181200 10008KT 6SM -SHRA OVC060
     FM181600 14007KT 5SM SHRA OVC025
      TEMPO 1819/1821 4SM TSRA OVC015CB
     FM182200 12007KT P6SM SCT015 BKN035
     FM190100 12006KT 6SM BR OVC022=



000
FTUS43 KFSD 172329
TAFSUX
TAF
KSUX 172329Z 1800/1824 08005KT P6SM SCT080 BKN200
     FM180900 09005KT P6SM -SHRA OVC070
     FM181200 10008KT 5SM SHRA OVC035
     FM181800 18008KT 6SM -SHRA OVC025
      TEMPO 1819/1821 4SM TSRA OVC015CB=



000
FTUS43 KFSD 172329
TAFHON
TAF
KHON 172329Z 1800/1824 36006KT P6SM SCT120 BKN200
     FM180700 36006KT P6SM OVC100
     FM181500 09008KT P6SM -SHRA OVC070
     FM182000 06006KT 5SM SHRA OVC015=



000
FTUS43 KFSD 172329
TAFFSD
TAF
KFSD 172329Z 1800/1824 02005KT P6SM SCT080 OVC200
     FM180500 03005KT P6SM OVC100
     FM181000 09008KT P6SM OVC080
     FM181500 11008KT 5SM SHRA OVC060
     FM181900 12008KT 4SM SHRA OVC012=



000
FTUS43 KFSD 172329
TAFSUX
TAF
KSUX 172329Z 1800/1824 08005KT P6SM SCT080 BKN200
     FM180900 09005KT P6SM -SHRA OVC070
     FM181200 10008KT 5SM SHRA OVC035
     FM181800 18008KT 6SM -SHRA OVC025
      TEMPO 1819/1821 4SM TSRA OVC015CB=



000
FTUS43 KFSD 172329
TAFFSD
TAF
KFSD 172329Z 1800/1824 02005KT P6SM SCT080 OVC200
     FM180500 03005KT P6SM OVC100
     FM181000 09008KT P6SM OVC080
     FM181500 11008KT 5SM SHRA OVC060
     FM181900 12008KT 4SM SHRA OVC012=



000
FTUS43 KFSD 172329
TAFHON
TAF
KHON 172329Z 1800/1824 36006KT P6SM SCT120 BKN200
     FM180700 36006KT P6SM OVC100
     FM181500 09008KT P6SM -SHRA OVC070
     FM182000 06006KT 5SM SHRA OVC015=



000
FTUS43 KFSD 172329
TAFSUX
TAF
KSUX 172329Z 1800/1824 08005KT P6SM SCT080 BKN200
     FM180900 09005KT P6SM -SHRA OVC070
     FM181200 10008KT 5SM SHRA OVC035
     FM181800 18008KT 6SM -SHRA OVC025
      TEMPO 1819/1821 4SM TSRA OVC015CB=



000
FTUS43 KFSD 171727
TAFHON
TAF
KHON 171727Z 1718/1818 04007KT P6SM SCT200
     FM180900 09008KT P6SM SCT050 OVC100
     FM181500 11009KT P6SM VCSH BKN035 OVC100=



000
FTUS43 KFSD 171727
TAFSUX
TAF
KSUX 171727Z 1718/1818 09007KT P6SM SCT045 BKN120
     FM180000 08005KT P6SM VCTS SCT060CB OVC120
     FM180300 18006KT P6SM SCT050 OVC120
     FM181200 09007KT P6SM -RA VCTS OVC040CB=



000
FTUS43 KFSD 171727
TAFFSD
TAF
KFSD 171727Z 1718/1818 06006KT P6SM SCT100 OVC200
     FM172300 07006KT P6SM BKN060 OVC120
     FM181700 11009KT P6SM VCSH BKN035 OVC100=



000
FTUS43 KFSD 171727
TAFSUX
TAF
KSUX 171727Z 1718/1818 09007KT P6SM SCT045 BKN120
     FM180000 08005KT P6SM VCTS SCT060CB OVC120
     FM180300 18006KT P6SM SCT050 OVC120
     FM181200 09007KT P6SM -RA VCTS OVC040CB=



000
FTUS43 KFSD 171727
TAFSUX
TAF
KSUX 171727Z 1718/1818 09007KT P6SM SCT045 BKN120
     FM180000 08005KT P6SM VCTS SCT060CB OVC120
     FM180300 18006KT P6SM SCT050 OVC120
     FM181200 09007KT P6SM -RA VCTS OVC040CB=



000
FTUS43 KFSD 171727
TAFHON
TAF
KHON 171727Z 1718/1818 04007KT P6SM SCT200
     FM180900 09008KT P6SM SCT050 OVC100
     FM181500 11009KT P6SM VCSH BKN035 OVC100=



000
FTUS43 KFSD 171727
TAFFSD
TAF
KFSD 171727Z 1718/1818 06006KT P6SM SCT100 OVC200
     FM172300 07006KT P6SM BKN060 OVC120
     FM181700 11009KT P6SM VCSH BKN035 OVC100=



000
FTUS43 KFSD 171727
TAFSUX
TAF
KSUX 171727Z 1718/1818 09007KT P6SM SCT045 BKN120
     FM180000 08005KT P6SM VCTS SCT060CB OVC120
     FM180300 18006KT P6SM SCT050 OVC120
     FM181200 09007KT P6SM -RA VCTS OVC040CB=



000
FTUS43 KFSD 171122
TAFSUX
TAF
KSUX 171122Z 1712/1812 VRB03KT P6SM BKN120
     FM171700 09007KT P6SM SCT045 BKN120
      TEMPO 1800/1803 -TSRA OVC035CB
     FM180800 09007KT P6SM -RA OVC040=



000
FTUS43 KFSD 171122
TAFFSD
TAF
KFSD 171122Z 1712/1812 VRB03KT P6SM SCT250
     FM171600 06006KT P6SM SCT120 OVC200
     FM172300 07006KT P6SM BKN060 OVC120=



000
FTUS43 KFSD 171122
TAFHON
TAF
KHON 171122Z 1712/1812 VRB05KT P6SM SCT250
     FM171500 04007KT P6SM SCT200
     FM180900 09008KT P6SM BKN050 OVC090=



000
FTUS43 KFSD 171122
TAFSUX
TAF
KSUX 171122Z 1712/1812 VRB03KT P6SM BKN120
     FM171700 09007KT P6SM SCT045 BKN120
      TEMPO 1800/1803 -TSRA OVC035CB
     FM180800 09007KT P6SM -RA OVC040=



000
FTUS43 KFSD 170524
TAFSUX
TAF
KSUX 170524Z 1706/1806 VRB03KT P6SM BKN120
     FM171700 09007KT P6SM SCT120
     FM180000 08007KT P6SM OVC060=



000
FTUS43 KFSD 170524
TAFSUX
TAF
KSUX 170524Z 1706/1806 VRB03KT P6SM BKN120
     FM171700 09007KT P6SM SCT120
     FM180000 08007KT P6SM OVC060=



000
FTUS43 KFSD 170524
TAFHON
TAF
KHON 170524Z 1706/1806 01005KT P6SM SCT070
     FM171500 04007KT P6SM SKC=



000
FTUS43 KFSD 170524
TAFFSD
TAF
KFSD 170524Z 1706/1806 VRB03KT P6SM SCT050
     FM171300 05006KT P6SM SKC
     FM172100 07006KT P6SM OVC060=



000
FTUS43 KFSD 170524
TAFSUX
TAF
KSUX 170524Z 1706/1806 VRB03KT P6SM BKN120
     FM171700 09007KT P6SM SCT120
     FM180000 08007KT P6SM OVC060=



000
FTUS43 KFSD 162320
TAFFSD
TAF
KFSD 162320Z 1700/1724 VRB03KT P6SM SCT050
     FM171300 04006KT P6SM SKC
     FM172100 08006KT P6SM OVC050=



000
FTUS43 KFSD 162320
TAFHON
TAF
KHON 162320Z 1700/1724 01005KT P6SM SCT070
     FM171500 04007KT P6SM SKC=



000
FTUS43 KFSD 162320
TAFSUX
TAF
KSUX 162320Z 1700/1724 VRB03KT P6SM SCT120
     FM171700 10007KT P6SM SCT120=



000
FTUS43 KFSD 162320
TAFSUX
TAF
KSUX 162320Z 1700/1724 VRB03KT P6SM SCT120
     FM171700 10007KT P6SM SCT120=



    US Dept of Commerce
    National Oceanic and Atmospheric Administration
    National Weather Service
    1325 East West Highway
    Silver Spring, MD 20910
    Page Author: NWS Internet Services Team
Disclaimer
Information Quality
Credits
Glossary
Privacy Policy
Freedom of Information Act (FOIA)
About Us
Career Opportunities